createdAt,value
2022-12-09T00:02:22.542Z,5.49
2022-12-09T00:04:49.890Z,5.66
2022-12-09T00:07:17.135Z,5.14
2022-12-09T00:09:44.057Z,5.23
2022-12-09T00:12:11.186Z,5.35
2022-12-09T00:14:38.120Z,5.58
2022-12-09T00:17:05.330Z,5.66
2022-12-09T00:19:32.405Z,5.50
2022-12-09T00:21:59.488Z,5.65
2022-12-09T00:24:26.636Z,5.60
2022-12-09T00:26:53.509Z,5.50
2022-12-09T00:29:20.190Z,5.56
2022-12-09T00:31:47.410Z,5.18
2022-12-09T00:34:14.640Z,5.56
2022-12-09T00:36:42.031Z,6.02
2022-12-09T00:39:10.560Z,6.12
2022-12-09T00:41:37.532Z,5.72
2022-12-09T00:44:04.985Z,6.18
2022-12-09T00:46:32.394Z,6.18
2022-12-09T00:48:59.681Z,5.56
2022-12-09T00:51:26.683Z,5.28
2022-12-09T00:53:55.905Z,4.95
2022-12-09T00:56:24.837Z,5.34
2022-12-09T00:58:52.061Z,5.29
2022-12-09T01:01:18.963Z,5.41
2022-12-09T01:03:46.149Z,4.93
2022-12-09T01:06:17.133Z,5.07
2022-12-09T01:08:45.688Z,4.96
2022-12-09T01:11:17.382Z,4.67
2022-12-09T01:13:44.260Z,4.85
2022-12-09T01:16:16.600Z,4.55
2022-12-09T01:18:44.143Z,4.91
2022-12-09T01:21:11.122Z,4.75
2022-12-09T01:23:38.263Z,4.99
2022-12-09T01:26:06.837Z,4.57
2022-12-09T01:28:38.300Z,4.27
2022-12-09T01:31:07.404Z,4.86
2022-12-09T01:33:34.790Z,5.52
2022-12-09T01:36:04.974Z,4.97
2022-12-09T01:38:32.097Z,5.23
2022-12-09T01:40:59.321Z,5.49
2022-12-09T01:43:26.292Z,5.16
2022-12-09T01:45:53.680Z,5.70
2022-12-09T01:48:23.885Z,5.20
2022-12-09T01:50:53.741Z,5.36
2022-12-09T01:53:23.875Z,5.36
2022-12-09T01:55:51.100Z,5.17
2022-12-09T01:58:18.424Z,5.12
2022-12-09T02:00:45.327Z,5.40
2022-12-09T02:03:13.050Z,5.20
2022-12-09T02:05:40.669Z,5.23
2022-12-09T02:08:12.332Z,5.14
2022-12-09T02:10:57.891Z,5.06
2022-12-09T02:13:38.122Z,5.12
2022-12-09T02:16:10.323Z,5.06
2022-12-09T02:18:48.405Z,5.02
2022-12-09T02:21:26.565Z,4.87
2022-12-09T02:24:03.052Z,5.10
2022-12-09T02:27:04.988Z,4.88
2022-12-09T02:30:06.887Z,4.73
2022-12-09T02:32:40.120Z,4.87
2022-12-09T02:35:36.496Z,4.71
2022-12-09T02:38:16.835Z,4.70
2022-12-09T02:40:50.611Z,4.76
2022-12-09T02:43:21.382Z,5.04
2022-12-09T02:45:49.882Z,4.67
2022-12-09T02:48:21.271Z,4.81
2022-12-09T02:50:50.066Z,4.67
2022-12-09T02:53:18.557Z,5.14
2022-12-09T02:55:48.029Z,4.63
2022-12-09T02:58:15.072Z,5.16
2022-12-09T03:00:42.386Z,5.35
2022-12-09T03:03:15.308Z,5.07
2022-12-09T03:05:42.287Z,5.34
2022-12-09T03:08:11.825Z,5.40
2022-12-09T03:10:54.282Z,5.57
2022-12-09T03:13:30.500Z,5.74
2022-12-09T03:16:06.749Z,5.51
2022-12-09T03:18:34.235Z,5.79
2022-12-09T03:21:01.700Z,5.23
2022-12-09T03:23:29.662Z,5.26
2022-12-09T03:25:56.986Z,5.06
2022-12-09T03:28:26.944Z,5.34
2022-12-09T03:30:55.462Z,4.68
2022-12-09T03:33:23.705Z,4.67
2022-12-09T03:35:56.330Z,4.94
2022-12-09T03:38:24.282Z,5.19
2022-12-09T03:40:58.161Z,5.56
2022-12-09T03:43:29.143Z,5.61
2022-12-09T03:45:57.527Z,5.61
2022-12-09T03:48:24.924Z,5.64
2022-12-09T03:50:59.819Z,5.48
2022-12-09T03:53:33.574Z,5.59
2022-12-09T03:56:22.295Z,5.59
2022-12-09T03:58:51.452Z,5.51
2022-12-09T04:01:19.051Z,5.06
2022-12-09T04:03:49.632Z,5.29
2022-12-09T04:06:16.729Z,5.51
2022-12-09T04:08:44.079Z,5.52
2022-12-09T04:11:11.204Z,5.54
2022-12-09T04:13:38.299Z,5.62
2022-12-09T04:16:05.459Z,5.61
2022-12-09T04:18:32.914Z,5.40
2022-12-09T04:20:59.828Z,5.37
2022-12-09T04:23:26.816Z,5.49
2022-12-09T04:25:53.689Z,5.63
2022-12-09T04:28:20.434Z,5.59
2022-12-09T04:30:47.890Z,5.26
2022-12-09T04:33:15.150Z,5.48
2022-12-09T04:35:42.417Z,5.35
2022-12-09T04:38:09.595Z,5.12
2022-12-09T04:40:36.821Z,5.07
2022-12-09T04:43:03.879Z,5.11
2022-12-09T04:45:31.175Z,5.23
2022-12-09T04:48:01.517Z,5.21
2022-12-09T04:50:28.443Z,5.62
2022-12-09T04:52:55.304Z,5.69
2022-12-09T04:55:22.458Z,5.75
2022-12-09T04:57:49.380Z,5.69
2022-12-09T05:00:17.081Z,5.67
2022-12-09T05:02:44.391Z,5.70
2022-12-09T05:05:12.470Z,5.82
2022-12-09T05:07:39.682Z,5.79
2022-12-09T05:10:08.086Z,5.78
2022-12-09T05:12:35.494Z,6.01
2022-12-09T05:15:02.769Z,6.12
2022-12-09T05:17:29.791Z,5.83
2022-12-09T05:19:56.898Z,5.97
2022-12-09T05:22:24.003Z,6.05
2022-12-09T05:24:51.400Z,5.69
2022-12-09T05:27:18.442Z,5.87
2022-12-09T05:29:45.346Z,5.85
2022-12-09T05:32:12.509Z,5.40
2022-12-09T05:34:39.759Z,5.57
2022-12-09T05:37:07.098Z,6.13
2022-12-09T05:39:34.372Z,5.67
2022-12-09T05:42:01.353Z,5.82
2022-12-09T05:44:29.080Z,5.80
2022-12-09T05:46:56.284Z,5.89
2022-12-09T05:49:24.549Z,6.04
2022-12-09T05:51:52.019Z,5.88
2022-12-09T05:54:19.413Z,5.67
2022-12-09T05:56:48.262Z,5.89
2022-12-09T05:59:21.663Z,6.07
2022-12-09T06:01:48.791Z,5.77
2022-12-09T06:04:16.220Z,5.43
2022-12-09T06:06:43.528Z,5.65
2022-12-09T06:09:12.360Z,5.93
2022-12-09T06:11:40.378Z,6.05
2022-12-09T06:14:09.649Z,5.89
2022-12-09T06:16:37.508Z,5.61
2022-12-09T06:19:06.079Z,5.40
2022-12-09T06:21:33.084Z,5.44
2022-12-09T06:24:00.079Z,5.17
2022-12-09T06:26:29.924Z,5.04
2022-12-09T06:28:57.753Z,5.25
2022-12-09T06:31:25.175Z,5.57
2022-12-09T06:33:55.261Z,5.09
2022-12-09T06:36:25.083Z,5.22
2022-12-09T06:38:52.721Z,5.21
2022-12-09T06:41:19.983Z,5.12
2022-12-09T06:43:47.029Z,5.21
2022-12-09T06:46:16.122Z,5.18
2022-12-09T06:48:43.619Z,5.35
2022-12-09T06:51:11.280Z,5.15
2022-12-09T06:53:38.571Z,5.27
2022-12-09T06:56:11.898Z,4.93
2022-12-09T06:58:41.299Z,5.02
2022-12-09T07:01:16.513Z,5.07
2022-12-09T07:03:45.766Z,5.01
2022-12-09T07:06:28.729Z,4.74
2022-12-09T07:08:58.280Z,4.93
2022-12-09T07:11:25.720Z,4.91
2022-12-09T07:13:52.926Z,4.54
2022-12-09T07:16:20.212Z,4.67
2022-12-09T07:18:49.619Z,4.96
2022-12-09T07:21:18.858Z,4.78
2022-12-09T07:23:46.144Z,4.69
2022-12-09T07:26:13.701Z,4.59
2022-12-09T07:28:42.631Z,4.69
2022-12-09T07:31:30.260Z,4.92
2022-12-09T07:33:58.955Z,4.60
2022-12-09T07:36:28.013Z,4.81
2022-12-09T07:39:00.153Z,4.61
2022-12-09T07:41:27.600Z,4.78
2022-12-09T07:43:55.138Z,4.52
2022-12-09T07:46:24.295Z,4.45
2022-12-09T07:48:51.462Z,4.24
2022-12-09T07:51:19.265Z,4.49
2022-12-09T07:53:47.137Z,4.70
2022-12-09T07:56:15.858Z,4.33
2022-12-09T07:58:44.765Z,4.50
2022-12-09T08:01:17.454Z,4.83
2022-12-09T08:03:45.510Z,4.66
2022-12-09T08:06:15.132Z,4.43
2022-12-09T08:08:43.215Z,4.46
2022-12-09T08:11:19.065Z,4.61
2022-12-09T08:13:46.860Z,4.50
2022-12-09T08:16:15.961Z,4.60
2022-12-09T08:18:43.989Z,4.45
2022-12-09T08:21:16.996Z,4.71
2022-12-09T08:23:44.957Z,4.99
2022-12-09T08:26:12.992Z,5.02
2022-12-09T08:28:41.152Z,4.70
2022-12-09T08:31:16.538Z,4.67
2022-12-09T08:33:44.109Z,4.55
2022-12-09T08:36:15.190Z,4.57
2022-12-09T08:38:43.372Z,4.81
2022-12-09T08:41:35.831Z,4.80
2022-12-09T08:44:12.282Z,4.85
2022-12-09T08:46:41.170Z,4.79
2022-12-09T08:49:09.215Z,4.77
2022-12-09T08:51:37.352Z,4.94
2022-12-09T08:54:05.042Z,5.04
2022-12-09T08:56:32.801Z,4.91
2022-12-09T08:59:00.772Z,5.26
2022-12-09T09:01:35.583Z,5.38
2022-12-09T09:04:05.582Z,5.62
2022-12-09T09:06:34.114Z,5.42
2022-12-09T09:09:01.430Z,5.39
2022-12-09T09:11:28.964Z,5.18
2022-12-09T09:13:57.002Z,5.59
2022-12-09T09:16:25.641Z,5.33
2022-12-09T09:18:53.492Z,5.53
2022-12-09T09:21:23.407Z,4.95
2022-12-09T09:23:51.091Z,4.88
2022-12-09T09:26:20.743Z,4.99
2022-12-09T09:28:48.102Z,5.22
2022-12-09T09:31:18.380Z,5.27
2022-12-09T09:33:46.091Z,5.25
2022-12-09T09:36:16.955Z,5.02
2022-12-09T09:38:53.957Z,5.13
2022-12-09T09:41:42.057Z,5.48
2022-12-09T09:44:39.395Z,5.17
2022-12-09T09:47:26.347Z,5.42
2022-12-09T09:50:04.693Z,5.59
2022-12-09T09:52:31.869Z,5.36
2022-12-09T09:54:59.380Z,4.92
2022-12-09T09:58:04.686Z,4.85
2022-12-09T10:00:48.772Z,4.71
2022-12-09T10:03:37.152Z,4.90
2022-12-09T10:06:25.787Z,4.84
2022-12-09T10:09:09.591Z,4.96
2022-12-09T10:11:43.199Z,4.86
2022-12-09T10:14:35.181Z,4.64
2022-12-09T10:17:33.297Z,4.45
2022-12-09T10:20:11.685Z,4.48
2022-12-09T10:23:12.932Z,4.56
2022-12-09T10:25:48.182Z,5.22
2022-12-09T10:28:25.397Z,5.03
2022-12-09T10:30:54.403Z,4.99
2022-12-09T10:33:34.465Z,5.12
2022-12-09T10:36:02.198Z,4.97
2022-12-09T10:38:30.973Z,5.08
2022-12-09T10:41:06.533Z,5.36
2022-12-09T10:43:39.261Z,5.10
2022-12-09T10:46:18.392Z,5.51
2022-12-09T10:48:49.201Z,5.01
2022-12-09T10:51:25.292Z,5.08
2022-12-09T10:54:04.303Z,4.77
2022-12-09T10:56:38.014Z,5.01
2022-12-09T10:59:23.241Z,5.02
2022-12-09T11:01:52.596Z,4.71
2022-12-09T11:04:27.354Z,4.94
2022-12-09T11:06:59.656Z,4.81
2022-12-09T11:09:32.424Z,4.72
2022-12-09T11:12:00.143Z,5.15
2022-12-09T11:14:39.715Z,5.04
2022-12-09T11:17:21.833Z,4.99
2022-12-09T11:20:21.330Z,4.92
2022-12-09T11:23:23.044Z,5.16
2022-12-09T11:26:04.626Z,5.67
2022-12-09T11:28:35.106Z,5.23
2022-12-09T11:31:29.605Z,5.49
2022-12-09T11:34:00.321Z,5.50
2022-12-09T11:36:37.225Z,5.61
2022-12-09T11:39:24.522Z,5.67
2022-12-09T11:42:17.480Z,5.77
2022-12-09T11:45:50.124Z,5.19
2022-12-09T11:48:34.988Z,5.06
2022-12-09T11:51:20.509Z,5.51
2022-12-09T11:53:47.495Z,5.59
2022-12-09T11:56:18.075Z,5.34
2022-12-09T11:59:00.610Z,5.50
2022-12-09T12:01:48.848Z,5.62
2022-12-09T12:04:18.678Z,5.49
2022-12-09T12:07:05.479Z,5.10
2022-12-09T12:09:38.310Z,5.73
2022-12-09T12:12:38.762Z,5.23
2022-12-09T12:15:32.223Z,5.39
2022-12-09T12:18:01.045Z,5.17
2022-12-09T12:20:49.478Z,5.30
2022-12-09T12:23:28.090Z,5.55
2022-12-09T12:26:04.256Z,5.55
2022-12-09T12:28:56.622Z,5.54
2022-12-09T12:31:46.608Z,5.63
2022-12-09T12:34:39.642Z,5.57
2022-12-09T12:37:43.595Z,5.61
2022-12-09T12:40:25.029Z,5.63
2022-12-09T12:43:24.655Z,5.43
2022-12-09T12:46:18.944Z,5.57
2022-12-09T12:49:01.834Z,5.72
2022-12-09T12:51:34.581Z,6.07
2022-12-09T12:54:35.155Z,5.88
2022-12-09T12:57:12.040Z,6.14
2022-12-09T13:00:11.330Z,5.48
2022-12-09T13:03:12.245Z,5.79
2022-12-09T13:05:42.886Z,5.67
2022-12-09T13:08:31.180Z,5.50
2022-12-09T13:11:01.396Z,5.31
2022-12-09T13:13:36.855Z,5.66
2022-12-09T13:16:20.537Z,5.33
2022-12-09T13:18:48.695Z,5.38
2022-12-09T13:21:16.004Z,5.51
2022-12-09T13:23:55.683Z,6.16
2022-12-09T13:27:05.323Z,5.68
2022-12-09T13:29:55.414Z,5.75
2022-12-09T13:32:42.796Z,5.91
2022-12-09T13:35:54.892Z,5.92
2022-12-09T13:38:42.834Z,6.20
2022-12-09T13:41:27.828Z,6.20
2022-12-09T13:44:05.291Z,6.02
2022-12-09T13:46:33.049Z,6.16
2022-12-09T13:49:16.889Z,5.98
2022-12-09T13:51:54.163Z,5.91
2022-12-09T13:54:23.340Z,5.99
2022-12-09T13:57:02.500Z,5.99
2022-12-09T13:59:59.716Z,5.75
2022-12-09T14:02:53.017Z,5.55
2022-12-09T14:05:23.418Z,5.92
2022-12-09T14:08:23.568Z,5.66
2022-12-09T14:10:50.976Z,6.23
2022-12-09T14:13:28.099Z,5.88
2022-12-09T14:16:15.259Z,6.33
2022-12-09T14:18:43.032Z,6.00
2022-12-09T14:21:30.637Z,6.61
2022-12-09T14:24:09.767Z,6.05
2022-12-09T14:26:37.700Z,5.64
2022-12-09T14:29:05.231Z,5.62
2022-12-09T14:31:43.525Z,6.33
2022-12-09T14:34:18.836Z,5.90
2022-12-09T14:36:54.441Z,6.51
2022-12-09T14:39:30.669Z,6.50
2022-12-09T14:42:02.216Z,6.22
2022-12-09T14:44:48.196Z,6.43
2022-12-09T14:47:23.126Z,6.42
2022-12-09T14:49:51.130Z,6.07
2022-12-09T14:52:25.302Z,6.14
2022-12-09T14:54:53.112Z,6.25
2022-12-09T14:57:27.835Z,6.40
2022-12-09T14:59:56.662Z,6.26
2022-12-09T15:02:26.555Z,6.60
2022-12-09T15:04:54.716Z,6.61
2022-12-09T15:07:28.700Z,6.48
2022-12-09T15:09:57.975Z,6.40
2022-12-09T15:12:27.572Z,6.19
2022-12-09T15:15:06.042Z,6.31
2022-12-09T15:17:40.702Z,6.26
2022-12-09T15:20:08.322Z,6.39
2022-12-09T15:22:35.243Z,6.51
2022-12-09T15:25:03.213Z,6.58
2022-12-09T15:27:30.750Z,6.36
2022-12-09T15:29:57.793Z,6.45
2022-12-09T15:32:28.045Z,6.52
2022-12-09T15:34:55.457Z,6.14
2022-12-09T15:37:27.125Z,6.51
2022-12-09T15:40:02.545Z,6.48
2022-12-09T15:42:32.462Z,6.44
2022-12-09T15:45:13.441Z,6.84
2022-12-09T15:47:47.896Z,6.83
2022-12-09T15:50:27.711Z,6.74
2022-12-09T15:53:02.547Z,6.59
2022-12-09T15:55:40.792Z,6.25
2022-12-09T15:58:11.846Z,6.24
2022-12-09T16:00:47.170Z,6.38
2022-12-09T16:03:17.582Z,6.40
2022-12-09T16:05:53.552Z,6.76
2022-12-09T16:08:21.461Z,6.44
2022-12-09T16:10:50.667Z,6.18
2022-12-09T16:13:19.193Z,6.51
2022-12-09T16:15:54.288Z,6.41
2022-12-09T16:18:28.220Z,6.26
2022-12-09T16:21:03.133Z,6.46
2022-12-09T16:23:30.068Z,6.64
2022-12-09T16:26:06.447Z,6.66
2022-12-09T16:28:34.135Z,6.35
2022-12-09T16:31:03.970Z,6.52
2022-12-09T16:33:35.214Z,6.44
2022-12-09T16:36:05.194Z,6.24
2022-12-09T16:38:34.129Z,6.54
2022-12-09T16:41:04.308Z,6.38
2022-12-09T16:43:31.338Z,6.65
2022-12-09T16:46:15.020Z,6.54
2022-12-09T16:48:42.733Z,6.41
2022-12-09T16:51:14.489Z,6.53
2022-12-09T16:53:47.269Z,6.45
2022-12-09T16:56:28.742Z,6.20
2022-12-09T16:58:56.265Z,6.02
2022-12-09T17:01:26.697Z,6.22
2022-12-09T17:04:04.362Z,6.34
2022-12-09T17:06:31.603Z,6.42
2022-12-09T17:08:58.628Z,6.54
2022-12-09T17:11:25.570Z,6.81
2022-12-09T17:13:52.654Z,7.07
2022-12-09T17:16:22.365Z,7.04
2022-12-09T17:18:49.951Z,7.07
2022-12-09T17:21:17.584Z,7.59
2022-12-09T17:23:44.602Z,7.51
2022-12-09T17:26:14.399Z,7.04
2022-12-09T17:28:41.883Z,6.88
2022-12-09T17:31:10.481Z,6.91
2022-12-09T17:33:37.708Z,7.01
2022-12-09T17:36:05.342Z,7.01
2022-12-09T17:38:32.253Z,6.51
2022-12-09T17:41:04.765Z,7.20
2022-12-09T17:43:31.916Z,7.46
2022-12-09T17:46:00.590Z,7.35
2022-12-09T17:48:29.125Z,7.23
2022-12-09T17:50:56.459Z,7.17
2022-12-09T17:53:23.621Z,6.63
2022-12-09T17:55:50.661Z,6.32
2022-12-09T17:58:17.820Z,6.51
2022-12-09T18:00:44.755Z,6.12
2022-12-09T18:03:17.789Z,6.03
2022-12-09T18:05:49.139Z,6.35
2022-12-09T18:08:15.867Z,6.75
2022-12-09T18:10:44.324Z,6.57
2022-12-09T18:13:11.165Z,6.31
2022-12-09T18:15:37.831Z,6.59
2022-12-09T18:18:04.913Z,6.61
2022-12-09T18:20:31.777Z,6.48
2022-12-09T18:22:58.478Z,6.22
2022-12-09T18:25:25.335Z,6.29
2022-12-09T18:27:51.987Z,6.53
2022-12-09T18:30:18.989Z,6.16
2022-12-09T18:32:46.011Z,6.75
2022-12-09T18:35:12.855Z,7.21
2022-12-09T18:37:39.569Z,7.14
2022-12-09T18:40:07.386Z,7.18
2022-12-09T18:42:34.504Z,6.49
2022-12-09T18:45:01.348Z,6.71
2022-12-09T18:47:28.326Z,7.00
2022-12-09T18:49:55.225Z,7.05
2022-12-09T18:52:22.104Z,7.05
2022-12-09T18:54:49.001Z,7.31
2022-12-09T18:57:15.851Z,6.92
2022-12-09T18:59:42.525Z,7.47
2022-12-09T19:02:11.811Z,7.10
2022-12-09T19:04:38.790Z,6.91
2022-12-09T19:07:05.753Z,7.50
2022-12-09T19:09:34.872Z,7.39
2022-12-09T19:12:22.950Z,7.47
2022-12-09T19:14:50.402Z,6.32
2022-12-09T19:17:18.952Z,7.17
2022-12-09T19:19:47.436Z,7.05
2022-12-09T19:22:14.750Z,7.13
2022-12-09T19:24:43.358Z,7.10
2022-12-09T19:27:10.485Z,6.51
2022-12-09T19:29:37.499Z,6.82
2022-12-09T19:32:13.923Z,7.08
2022-12-09T19:34:50.693Z,6.72
2022-12-09T19:37:17.357Z,7.42
2022-12-09T19:39:46.570Z,6.83
2022-12-09T19:42:13.573Z,6.75
2022-12-09T19:47:27.371Z,6.33
2022-12-09T19:49:54.273Z,6.87
2022-12-09T19:52:21.192Z,6.23
2022-12-09T19:54:48.031Z,6.79
2022-12-09T19:57:15.490Z,7.14
2022-12-09T19:59:42.397Z,7.74
2022-12-09T20:02:12.182Z,7.82
2022-12-09T20:04:48.788Z,7.43
2022-12-09T20:07:16.911Z,7.62
2022-12-09T20:09:43.895Z,7.94
2022-12-09T20:12:10.781Z,7.73
2022-12-09T20:14:39.020Z,7.98
2022-12-09T20:17:05.985Z,8.14
2022-12-09T20:19:32.927Z,8.18
2022-12-09T20:21:59.795Z,7.92
2022-12-09T20:24:26.969Z,7.92
2022-12-09T20:26:55.226Z,8.03
2022-12-09T20:29:22.104Z,7.99
2022-12-09T20:31:48.989Z,8.05
2022-12-09T20:34:16.587Z,7.95
2022-12-09T20:36:44.828Z,8.32
2022-12-09T20:39:18.197Z,8.28
2022-12-09T20:41:45.556Z,8.38
2022-12-09T20:44:13.256Z,8.35
2022-12-09T20:46:41.557Z,8.38
2022-12-09T20:49:09.651Z,8.43
2022-12-09T20:51:38.786Z,8.60
2022-12-09T20:54:07.166Z,8.35
2022-12-09T20:56:35.617Z,8.32
2022-12-09T20:59:03.400Z,8.62
2022-12-09T21:01:32.910Z,8.74
2022-12-09T21:04:01.452Z,8.66
2022-12-09T21:06:30.479Z,8.85
2022-12-09T21:09:00.906Z,8.91
2022-12-09T21:11:27.838Z,8.53
2022-12-09T21:13:58.540Z,8.48
2022-12-09T21:16:30.551Z,8.59
2022-12-09T21:18:59.453Z,8.21
2022-12-09T21:21:28.961Z,8.36
2022-12-09T21:23:56.020Z,8.51
2022-12-09T21:26:24.603Z,8.21
2022-12-09T21:28:52.250Z,8.62
2022-12-09T21:31:24.846Z,8.43
2022-12-09T21:33:56.031Z,7.90
2022-12-09T21:36:27.858Z,8.23
2022-12-09T21:38:54.991Z,8.10
2022-12-09T21:41:24.779Z,8.06
2022-12-09T21:43:52.581Z,7.71
2022-12-09T21:46:22.471Z,7.59
2022-12-09T21:48:52.310Z,7.27
2022-12-09T21:51:20.560Z,7.04
2022-12-09T21:53:48.651Z,7.16
2022-12-09T21:56:18.920Z,7.92
2022-12-09T21:58:47.164Z,7.99
2022-12-09T22:01:19.553Z,7.97
2022-12-09T22:03:47.741Z,8.07
2022-12-09T22:06:15.152Z,8.20
2022-12-09T22:08:42.808Z,8.43
2022-12-09T22:11:11.730Z,8.51
2022-12-09T22:13:39.925Z,8.43
2022-12-09T22:16:12.487Z,8.53
2022-12-09T22:18:39.769Z,8.52
2022-12-09T22:21:24.061Z,8.53
2022-12-09T22:23:58.913Z,8.39
2022-12-09T22:26:26.272Z,8.86
2022-12-09T22:28:53.874Z,8.73
2022-12-09T22:31:26.161Z,8.79
2022-12-09T22:33:54.991Z,9.05
2022-12-09T22:36:22.535Z,8.93
2022-12-09T22:38:50.188Z,9.13
2022-12-09T22:41:22.305Z,9.19
2022-12-09T22:43:50.122Z,9.48
2022-12-09T22:46:20.962Z,9.37
2022-12-09T22:48:48.072Z,9.30
2022-12-09T22:51:19.157Z,9.21
2022-12-09T22:53:47.949Z,9.35
2022-12-09T22:56:14.787Z,9.69
2022-12-09T22:58:41.503Z,9.64
2022-12-09T23:01:13.268Z,9.66
2022-12-09T23:03:40.315Z,9.71
2022-12-09T23:06:08.189Z,9.50
2022-12-09T23:08:36.254Z,9.34
2022-12-09T23:11:05.137Z,9.66
2022-12-09T23:13:35.007Z,9.76
2022-12-09T23:16:06.754Z,8.84
2022-12-09T23:18:34.515Z,8.45
2022-12-09T23:21:09.521Z,8.38
2022-12-09T23:23:36.513Z,8.60
2022-12-09T23:26:11.148Z,8.35
2022-12-09T23:28:39.455Z,8.43
2022-12-09T23:31:10.189Z,8.17
2022-12-09T23:33:38.891Z,8.28
2022-12-09T23:36:14.410Z,8.03
2022-12-09T23:38:41.891Z,8.10
2022-12-09T23:41:10.294Z,8.30
2022-12-09T23:43:38.274Z,8.02
2022-12-09T23:46:14.986Z,8.37
2022-12-09T23:48:44.197Z,7.71
2022-12-09T23:51:16.105Z,7.95
2022-12-09T23:53:44.336Z,7.83
2022-12-09T23:56:13.520Z,8.19
2022-12-09T23:58:40.976Z,7.69
